Time;durP1;ratioP1;P1;durP2;ratioP2;P2;SDS_P1;SDS_P2;PMS_P1;PMS_P2;Temp;Humidity;BMP_temperature;BMP_pressure;BME280_temperature;BME280_humidity;BME280_pressure;Samples;Min_cycle;Max_cycle;Signal;HPM_P1;HPM_P2
2022/01/08 00:01:27;;;;;;;19.43;9.20;;;0.00;80.20;;;;;;5024847;28;20203;-70
2022/01/08 00:03:54;;;;;;;21.27;9.77;;;0.00;80.10;;;;;;5031684;28;20203;-71
2022/01/08 00:06:22;;;;;;;20.03;9.70;;;-0.10;79.70;;;;;;5032263;28;20269;-71
2022/01/08 00:08:49;;;;;;;23.27;9.33;;;-0.10;79.70;;;;;;5034251;28;20290;-70
2022/01/08 00:11:20;;;;;;;19.80;9.83;;;-0.10;79.70;;;;;;5033951;28;20202;-70
2022/01/08 00:13:49;;;;;;;18.90;9.07;;;-0.10;79.20;;;;;;5031055;28;20231;-70
2022/01/08 00:16:16;;;;;;;17.60;8.63;;;-0.10;79.20;;;;;;5029214;28;20215;-69
2022/01/08 00:18:42;;;;;;;16.80;9.27;;;-0.10;80.00;;;;;;5032077;28;20707;-70
2022/01/08 00:21:09;;;;;;;17.00;8.80;;;-0.10;79.30;;;;;;5032422;28;20206;-69
2022/01/08 00:23:36;;;;;;;21.53;8.80;;;-0.10;79.30;;;;;;5029873;28;20299;-70
2022/01/08 00:26:04;;;;;;;18.73;8.97;;;-0.10;80.00;;;;;;5034592;28;20278;-71
2022/01/08 00:28:31;;;;;;;21.60;9.57;;;0.00;79.10;;;;;;5034821;28;20337;-70
2022/01/08 00:30:59;;;;;;;23.57;9.67;;;-0.10;78.70;;;;;;5033820;28;20672;-68
2022/01/08 00:33:26;;;;;;;18.17;9.50;;;-0.10;78.40;;;;;;5031535;28;20211;-69
2022/01/08 00:35:53;;;;;;;17.10;8.70;;;-0.10;78.30;;;;;;5035913;28;20209;-71
2022/01/08 00:38:20;;;;;;;24.03;10.10;;;-0.10;78.40;;;;;;5043372;28;20305;-70
2022/01/08 00:40:47;;;;;;;17.17;9.13;;;-0.10;78.40;;;;;;5029073;28;20223;-70
2022/01/08 00:43:13;;;;;;;21.90;9.93;;;-0.20;78.10;;;;;;5036614;28;20253;-70
2022/01/08 00:45:40;;;;;;;17.63;8.80;;;-0.20;78.00;;;;;;5035389;28;20207;-70
2022/01/08 00:48:09;;;;;;;21.63;9.67;;;-0.20;77.90;;;;;;5029107;28;20208;-70
2022/01/08 00:50:36;;;;;;;18.37;9.33;;;-0.20;77.90;;;;;;5044805;28;20225;-69
2022/01/08 00:53:02;;;;;;;18.43;8.73;;;-0.20;77.90;;;;;;5027519;28;20286;-71
2022/01/08 00:55:29;;;;;;;18.57;9.37;;;-0.20;78.60;;;;;;5023854;28;20217;-70
2022/01/08 00:57:56;;;;;;;20.33;9.57;;;-0.30;77.70;;;;;;5028592;28;20230;-70
2022/01/08 01:00:23;;;;;;;19.97;9.27;;;-0.30;77.70;;;;;;5028746;28;20593;-69
2022/01/08 01:02:51;;;;;;;21.47;9.97;;;-0.30;77.80;;;;;;5035809;28;20582;-70
2022/01/08 01:05:19;;;;;;;17.60;8.87;;;-0.30;78.00;;;;;;5027378;28;20582;-70
2022/01/08 01:07:46;;;;;;;19.73;9.70;;;-0.30;78.00;;;;;;5045416;28;20206;-69
2022/01/08 01:10:13;;;;;;;23.53;10.10;;;-0.20;78.30;;;;;;5045051;28;20594;-69
2022/01/08 01:12:40;;;;;;;18.00;9.10;;;-0.30;78.30;;;;;;5034891;28;20609;-71
2022/01/08 01:15:09;;;;;;;19.67;9.27;;;-0.30;78.30;;;;;;5027391;28;20214;-69
2022/01/08 01:17:36;;;;;;;19.63;8.63;;;-0.30;78.30;;;;;;5034596;28;20205;-70
2022/01/08 01:20:04;;;;;;;19.40;9.43;;;-0.30;78.30;;;;;;5037777;28;20226;-69
2022/01/08 01:22:42;;;;;;;17.83;8.07;;;-0.30;78.70;;;;;;5036253;28;20213;-69
2022/01/08 01:25:14;;;;;;;18.60;9.27;;;-0.30;78.40;;;;;;5036971;28;20298;-70
2022/01/08 01:30:48;;;;;;;21.67;9.07;;;-0.30;78.20;;;;;;5028341;28;20704;-70
2022/01/08 01:41:41;;;;;;;17.87;8.90;;;-0.40;77.80;;;;;;5036677;28;20321;-69
2022/01/08 01:47:04;;;;;;;14.83;7.20;;;-0.40;77.70;;;;;;5029770;28;20626;-69
2022/01/08 01:49:32;;;;;;;19.60;8.33;;;0.20;78.10;;;;;;5044677;28;20202;-69
2022/01/08 01:52:00;;;;;;;18.43;8.20;;;-0.40;77.10;;;;;;5044419;28;20202;-69
2022/01/08 01:54:29;;;;;;;16.97;7.13;;;-0.40;76.80;;;;;;5033227;28;20233;-71
2022/01/08 01:56:58;;;;;;;16.83;8.80;;;-0.50;76.50;;;;;;5027896;28;20232;-69
2022/01/08 01:59:25;;;;;;;20.57;8.13;;;-0.50;76.30;;;;;;5043242;28;20219;-70
2022/01/08 02:01:52;;;;;;;16.37;8.33;;;-0.50;76.30;;;;;;5024681;28;20215;-70
2022/01/08 02:04:18;;;;;;;21.33;8.67;;;-0.50;76.40;;;;;;5036098;28;20692;-70
2022/01/08 02:06:46;;;;;;;16.07;8.37;;;-0.50;76.50;;;;;;5034144;28;20217;-69
2022/01/08 02:09:12;;;;;;;20.07;8.97;;;-0.50;76.40;;;;;;5029905;28;20225;-69
2022/01/08 02:12:02;;;;;;;18.23;8.53;;;-0.60;76.30;;;;;;5024598;28;20212;-70
2022/01/08 02:14:31;;;;;;;14.93;8.30;;;-0.60;76.60;;;;;;5020560;28;20594;-70
2022/01/08 02:16:59;;;;;;;16.93;8.20;;;-0.60;76.60;;;;;;5023534;28;20312;-69
2022/01/08 02:19:26;;;;;;;17.67;8.33;;;-0.50;76.80;;;;;;5040501;28;20302;-70
2022/01/08 02:21:56;;;;;;;15.87;8.10;;;-0.60;76.80;;;;;;5044721;28;20215;-69
2022/01/08 02:24:24;;;;;;;19.50;8.73;;;-0.60;76.90;;;;;;5023714;28;20203;-69
2022/01/08 02:26:51;;;;;;;19.43;8.60;;;-0.60;76.90;;;;;;5032944;28;20220;-70
2022/01/08 02:29:20;;;;;;;19.53;8.87;;;-0.60;77.20;;;;;;5032365;28;20225;-69
2022/01/08 02:31:54;;;;;;;14.97;8.33;;;-0.70;77.00;;;;;;5035797;28;20574;-70
2022/01/08 02:34:21;;;;;;;21.47;9.47;;;-0.60;77.20;;;;;;5026473;28;20213;-69
2022/01/08 02:36:47;;;;;;;18.30;8.63;;;-0.70;77.10;;;;;;5029175;28;20317;-69
2022/01/08 02:39:16;;;;;;;20.67;8.77;;;-0.70;77.00;;;;;;5033614;28;20224;-70
2022/01/08 02:41:42;;;;;;;16.00;8.10;;;-0.70;77.80;;;;;;5019352;28;20756;-70
2022/01/08 02:44:10;;;;;;;17.80;8.10;;;-0.70;77.00;;;;;;5035393;28;20211;-71
2022/01/08 02:46:39;;;;;;;18.30;9.23;;;-0.70;76.80;;;;;;5031184;28;20207;-68
2022/01/08 02:49:06;;;;;;;18.60;8.77;;;-0.70;76.80;;;;;;5039946;28;20202;-69
2022/01/08 02:51:35;;;;;;;15.43;8.23;;;-0.80;76.60;;;;;;5032385;28;20210;-69
2022/01/08 02:54:02;;;;;;;21.30;8.83;;;-0.80;76.60;;;;;;5019722;28;20253;-70
2022/01/08 02:56:31;;;;;;;15.57;7.97;;;-0.70;76.80;;;;;;5026146;28;20245;-69
2022/01/08 02:58:57;;;;;;;19.67;9.00;;;-0.80;76.60;;;;;;5018376;28;20207;-69
2022/01/08 03:01:24;;;;;;;19.80;8.67;;;-0.80;76.90;;;;;;5027233;28;20223;-70
2022/01/08 03:03:56;;;;;;;19.00;8.80;;;-0.80;76.70;;;;;;5029356;28;20215;-69
2022/01/08 03:06:23;;;;;;;16.63;7.43;;;-0.80;76.60;;;;;;5032726;28;20213;-69
2022/01/08 03:08:49;;;;;;;18.37;8.27;;;-0.80;76.50;;;;;;5021198;28;20562;-70
2022/01/08 03:11:16;;;;;;;19.53;9.13;;;-0.90;76.20;;;;;;5018821;28;20231;-69
2022/01/08 03:13:45;;;;;;;15.20;8.50;;;-0.90;76.40;;;;;;5029300;28;20210;-69
2022/01/08 03:16:12;;;;;;;18.07;8.47;;;-0.70;76.60;;;;;;5023910;28;20780;-70
2022/01/08 03:18:38;;;;;;;19.87;8.67;;;-0.90;76.60;;;;;;5019975;28;20210;-69
2022/01/08 03:21:14;;;;;;;19.10;9.20;;;-0.90;76.60;;;;;;5033309;28;20260;-70
2022/01/08 03:23:47;;;;;;;22.23;9.33;;;-0.90;76.60;;;;;;5029173;28;20194;-69
2022/01/08 03:26:16;;;;;;;20.13;9.13;;;-0.90;76.90;;;;;;5018751;28;20208;-69
2022/01/08 03:28:44;;;;;;;18.63;9.40;;;-0.90;77.10;;;;;;5030877;28;20573;-69
2022/01/08 03:31:12;;;;;;;21.80;9.10;;;-1.00;77.10;;;;;;5030907;28;20206;-70
2022/01/08 03:33:39;;;;;;;16.03;8.90;;;-1.00;77.10;;;;;;5035258;28;20206;-70
2022/01/08 03:36:06;;;;;;;20.00;9.80;;;-1.00;77.30;;;;;;5026838;28;20202;-70
2022/01/08 03:38:34;;;;;;;19.10;8.60;;;-1.00;77.40;;;;;;5018364;28;20298;-69
2022/01/08 03:41:01;;;;;;;16.57;8.57;;;-1.10;77.50;;;;;;5029832;28;20245;-70
2022/01/08 03:43:28;;;;;;;20.33;9.37;;;-1.10;77.60;;;;;;5032535;28;20210;-71
2022/01/08 03:45:56;;;;;;;23.90;10.10;;;-1.10;78.50;;;;;;5033046;28;20211;-70
2022/01/08 03:48:29;;;;;;;20.00;10.33;;;-1.20;78.00;;;;;;5039528;28;20206;-69
2022/01/08 03:50:58;;;;;;;22.03;9.70;;;-1.20;78.20;;;;;;5043154;28;20224;-71
2022/01/08 03:53:26;;;;;;;16.53;9.10;;;-1.20;78.20;;;;;;5031897;28;20298;-70
2022/01/08 03:55:53;;;;;;;17.73;9.20;;;-1.20;78.40;;;;;;5032861;28;20207;-71
2022/01/08 03:58:20;;;;;;;18.37;9.30;;;-1.20;78.70;;;;;;5040801;28;20212;-70
2022/01/08 04:00:47;;;;;;;18.33;9.00;;;-1.30;78.70;;;;;;5031677;28;20749;-71
2022/01/08 04:03:18;;;;;;;19.90;9.50;;;-1.30;78.80;;;;;;5029352;28;20211;-71
2022/01/08 04:05:46;;;;;;;17.40;9.37;;;-1.30;78.90;;;;;;5031276;28;20232;-70
2022/01/08 04:08:13;;;;;;;21.03;9.80;;;-1.40;79.00;;;;;;5025212;28;20225;-70
2022/01/08 04:10:40;;;;;;;20.17;9.57;;;-1.40;79.20;;;;;;5029867;28;20238;-70
2022/01/08 04:13:11;;;;;;;22.00;9.47;;;-1.40;79.30;;;;;;5028014;28;20239;-70
2022/01/08 04:15:41;;;;;;;19.30;10.40;;;-1.40;79.60;;;;;;5030371;28;20252;-70
2022/01/08 04:18:09;;;;;;;18.57;9.33;;;-1.40;79.70;;;;;;5022941;28;20246;-71
2022/01/08 04:20:49;;;;;;;18.40;9.53;;;-1.50;79.70;;;;;;5030872;28;20658;-70
2022/01/08 04:23:20;;;;;;;19.37;10.37;;;-1.50;79.90;;;;;;5022605;28;20655;-70
2022/01/08 04:25:47;;;;;;;16.40;8.13;;;-1.50;80.00;;;;;;5031468;28;20289;-70
2022/01/08 04:28:15;;;;;;;18.77;9.73;;;-1.50;80.10;;;;;;5038308;28;20212;-71
2022/01/08 04:30:42;;;;;;;23.30;10.83;;;-1.50;80.20;;;;;;5019616;28;20217;-70
2022/01/08 04:33:09;;;;;;;19.53;9.20;;;-1.50;80.50;;;;;;5031240;28;20237;-70
2022/01/08 04:35:38;;;;;;;21.77;9.50;;;-1.50;80.70;;;;;;5028176;28;20233;-70
2022/01/08 04:38:05;;;;;;;20.67;9.67;;;-1.60;80.70;;;;;;5028386;28;20235;-70
2022/01/08 04:40:33;;;;;;;21.97;9.93;;;-1.60;80.80;;;;;;5033742;28;20242;-70
2022/01/08 04:43:00;;;;;;;25.63;10.83;;;-1.60;80.80;;;;;;5032495;28;20221;-69
2022/01/08 04:45:29;;;;;;;22.13;9.70;;;-1.60;81.00;;;;;;5029013;28;20203;-70
2022/01/08 04:47:56;;;;;;;19.83;10.07;;;-1.70;81.10;;;;;;5037101;28;20198;-70
2022/01/08 04:50:24;;;;;;;20.10;9.97;;;-1.70;81.20;;;;;;5044299;28;20209;-70
2022/01/08 04:52:52;;;;;;;25.43;10.70;;;-1.70;81.40;;;;;;5023565;28;20229;-69
2022/01/08 04:55:20;;;;;;;17.80;9.00;;;-1.70;81.60;;;;;;5030326;28;20557;-70
2022/01/08 04:57:47;;;;;;;20.60;9.37;;;-1.70;81.90;;;;;;5042231;28;20262;-69
2022/01/08 05:00:15;;;;;;;23.17;11.10;;;-1.70;82.00;;;;;;5033919;28;20232;-70
2022/01/08 05:02:42;;;;;;;22.07;9.97;;;-1.80;82.00;;;;;;5033005;28;20217;-70
2022/01/08 05:05:10;;;;;;;20.30;10.17;;;-1.80;82.00;;;;;;5032411;28;20214;-70
2022/01/08 05:07:37;;;;;;;23.80;10.03;;;-1.80;82.20;;;;;;5027944;28;20294;-70
2022/01/08 05:10:06;;;;;;;17.67;9.17;;;-1.80;82.40;;;;;;5031878;28;20202;-70
2022/01/08 05:12:33;;;;;;;20.87;9.70;;;-1.90;82.60;;;;;;5030931;28;20218;-69
2022/01/08 05:15:01;;;;;;;21.37;10.57;;;-1.90;82.80;;;;;;5031376;28;20203;-69
2022/01/08 05:17:32;;;;;;;25.23;10.80;;;-2.00;83.00;;;;;;5034948;28;20252;-69
2022/01/08 05:20:01;;;;;;;24.03;10.63;;;-2.00;83.20;;;;;;5045298;28;20241;-69
2022/01/08 05:22:30;;;;;;;22.67;9.77;;;-2.10;83.30;;;;;;5023099;28;20314;-71
2022/01/08 05:24:58;;;;;;;20.47;9.87;;;-2.10;83.60;;;;;;5025545;28;20214;-69
2022/01/08 05:27:26;;;;;;;20.03;9.90;;;-2.10;83.80;;;;;;5031416;28;20552;-69
2022/01/08 05:29:54;;;;;;;19.50;10.00;;;-2.10;83.80;;;;;;5035173;28;20218;-70
2022/01/08 05:32:21;;;;;;;22.57;10.70;;;-2.10;83.80;;;;;;5047011;28;20210;-70
2022/01/08 05:34:50;;;;;;;22.10;10.57;;;-2.20;83.70;;;;;;5034776;28;20221;-69
2022/01/08 05:37:19;;;;;;;20.40;10.03;;;-2.20;84.10;;;;;;5029790;28;20241;-70
2022/01/08 05:39:46;;;;;;;22.67;11.27;;;-2.20;84.60;;;;;;5021027;28;20215;-71
2022/01/08 05:42:13;;;;;;;22.37;10.87;;;-2.20;85.60;;;;;;5035860;28;20237;-70
2022/01/08 05:44:42;;;;;;;24.07;10.37;;;-2.20;84.80;;;;;;5028948;28;20671;-69
2022/01/08 05:47:09;;;;;;;18.37;10.00;;;-2.30;85.00;;;;;;5026268;28;20202;-70
2022/01/08 05:49:36;;;;;;;21.60;10.40;;;-2.30;85.50;;;;;;5044286;28;20585;-70
2022/01/08 05:52:03;;;;;;;20.77;10.30;;;-2.30;85.50;;;;;;5046115;28;20213;-69
2022/01/08 05:54:30;;;;;;;20.30;9.30;;;-2.30;85.50;;;;;;5033834;28;20293;-69
2022/01/08 05:56:58;;;;;;;20.13;10.67;;;-2.40;85.60;;;;;;5036122;28;20226;-70
2022/01/08 05:59:26;;;;;;;20.83;10.47;;;-2.40;85.80;;;;;;5043047;28;20203;-70
2022/01/08 06:01:55;;;;;;;22.50;10.77;;;-2.40;86.10;;;;;;5022851;28;20234;-69
2022/01/08 06:04:22;;;;;;;21.70;9.87;;;-2.40;86.30;;;;;;5032012;28;20207;-70
2022/01/08 06:06:49;;;;;;;20.53;9.80;;;-2.40;86.50;;;;;;5035202;28;20230;-70
2022/01/08 06:09:17;;;;;;;23.33;10.70;;;-2.40;86.70;;;;;;5047372;28;20229;-69
2022/01/08 06:11:44;;;;;;;23.37;10.90;;;-2.40;86.70;;;;;;5034096;28;20272;-70
2022/01/08 06:14:11;;;;;;;21.53;10.67;;;-2.50;86.80;;;;;;5037364;28;20202;-70
2022/01/08 06:16:38;;;;;;;25.37;11.90;;;-2.50;87.00;;;;;;5034405;28;20228;-70
2022/01/08 06:19:08;;;;;;;24.03;11.20;;;-2.40;87.20;;;;;;5020397;28;20599;-70
2022/01/08 06:21:36;;;;;;;27.20;11.10;;;-2.50;87.10;;;;;;5034490;28;20230;-69
2022/01/08 06:24:03;;;;;;;24.17;11.00;;;-2.50;87.30;;;;;;5024443;28;20218;-69
2022/01/08 06:26:30;;;;;;;27.30;10.50;;;-2.60;87.30;;;;;;5034193;28;20220;-70
2022/01/08 06:28:57;;;;;;;20.87;10.53;;;-2.60;87.60;;;;;;5030513;28;20297;-71
2022/01/08 06:31:24;;;;;;;22.93;10.83;;;-2.60;88.40;;;;;;5033971;28;20199;-69
2022/01/08 06:33:52;;;;;;;20.10;10.47;;;-2.60;87.90;;;;;;5032773;28;20213;-70
2022/01/08 06:36:23;;;;;;;24.10;10.57;;;-2.60;88.10;;;;;;5029730;28;20210;-69
2022/01/08 06:38:50;;;;;;;22.23;10.53;;;-2.60;88.10;;;;;;5031060;28;20211;-68
2022/01/08 06:41:17;;;;;;;26.00;11.93;;;-2.60;88.30;;;;;;5032739;28;20233;-70
2022/01/08 06:43:44;;;;;;;19.43;10.60;;;-2.50;88.60;;;;;;5026623;28;20207;-70
2022/01/08 06:46:11;;;;;;;21.83;10.67;;;-2.60;88.70;;;;;;5029926;28;20218;-69
2022/01/08 06:48:38;;;;;;;19.60;10.43;;;-2.60;88.90;;;;;;5041589;28;20202;-69
2022/01/08 06:51:04;;;;;;;20.00;9.80;;;-2.60;89.10;;;;;;5038469;28;20211;-70
2022/01/08 06:53:33;;;;;;;22.23;10.33;;;-2.60;89.10;;;;;;5028202;28;20212;-71
2022/01/08 06:55:59;;;;;;;21.23;9.90;;;-2.60;89.10;;;;;;5047585;28;20297;-69
2022/01/08 06:58:27;;;;;;;21.63;10.70;;;-2.60;89.30;;;;;;5047940;28;20292;-70
2022/01/08 07:00:54;;;;;;;20.50;10.00;;;-2.60;89.30;;;;;;5035782;28;20660;-68
2022/01/08 07:03:21;;;;;;;18.80;10.13;;;-2.60;89.40;;;;;;5031540;28;20209;-69
2022/01/08 07:05:48;;;;;;;23.43;10.83;;;-2.50;89.60;;;;;;5045381;28;20222;-70
2022/01/08 07:08:15;;;;;;;25.33;11.63;;;-2.50;89.50;;;;;;5030549;28;20645;-70
2022/01/08 07:10:43;;;;;;;22.47;10.63;;;-2.50;89.70;;;;;;5038691;28;20207;-70
2022/01/08 07:13:10;;;;;;;20.83;9.73;;;-2.50;89.80;;;;;;5034797;28;20286;-70
2022/01/08 07:15:37;;;;;;;20.97;10.07;;;-2.50;89.70;;;;;;5043455;28;20632;-70
2022/01/08 07:18:04;;;;;;;22.93;10.97;;;-2.50;89.70;;;;;;5043335;28;20365;-70
2022/01/08 07:20:31;;;;;;;24.70;9.57;;;-2.50;89.70;;;;;;5037938;28;20735;-74
2022/01/08 07:22:59;;;;;;;22.17;11.13;;;-2.50;89.80;;;;;;5049708;28;20762;-75
2022/01/08 07:25:26;;;;;;;23.47;10.40;;;-2.40;89.80;;;;;;5030869;28;20206;-75
2022/01/08 07:27:54;;;;;;;21.90;10.47;;;-2.50;89.90;;;;;;5039367;28;20258;-76
2022/01/08 07:30:21;;;;;;;18.90;10.60;;;-2.50;90.00;;;;;;5044511;28;20298;-74
2022/01/08 07:32:51;;;;;;;24.67;10.13;;;-2.50;90.10;;;;;;5027932;28;20222;-75
2022/01/08 07:35:21;;;;;;;20.37;10.13;;;-2.40;90.10;;;;;;5038271;28;20755;-75
2022/01/08 07:37:50;;;;;;;20.27;10.30;;;-2.40;90.20;;;;;;5027237;28;20299;-71
2022/01/08 07:40:17;;;;;;;20.93;9.53;;;-2.30;90.30;;;;;;5024331;28;20211;-72
2022/01/08 07:42:44;;;;;;;21.60;10.40;;;-2.20;90.50;;;;;;5037516;28;20309;-74
2022/01/08 07:45:13;;;;;;;20.00;10.93;;;-2.00;90.50;;;;;;5031395;28;20221;-72
2022/01/08 07:47:40;;;;;;;24.37;11.13;;;-1.90;90.30;;;;;;5054836;28;20296;-74
2022/01/08 07:50:08;;;;;;;24.43;11.00;;;-1.80;90.10;;;;;;5045873;28;20206;-76
2022/01/08 07:52:35;;;;;;;25.40;11.27;;;-1.60;89.90;;;;;;5044035;28;20312;-75
2022/01/08 07:55:02;;;;;;;22.00;11.17;;;-1.40;89.90;;;;;;5037836;28;20272;-71
2022/01/08 07:57:29;;;;;;;19.23;10.13;;;-1.20;89.20;;;;;;5045959;28;20222;-68
2022/01/08 07:59:55;;;;;;;16.53;10.17;;;-1.10;88.50;;;;;;5033168;28;20219;-71
2022/01/08 08:02:24;;;;;;;22.03;10.83;;;-0.80;88.50;;;;;;5033696;28;20218;-73
2022/01/08 08:04:51;;;;;;;20.87;11.13;;;-0.80;87.30;;;;;;5044078;28;20202;-73
2022/01/08 08:07:27;;;;;;;19.40;10.57;;;-0.70;86.70;;;;;;5049084;28;20205;-72
2022/01/08 08:09:54;;;;;;;27.53;11.13;;;-0.60;85.90;;;;;;5042471;28;20701;-69
2022/01/08 08:12:22;;;;;;;21.50;10.77;;;-0.40;85.50;;;;;;5050593;28;20206;-69
2022/01/08 08:14:49;;;;;;;21.63;10.37;;;-0.30;85.60;;;;;;5044102;28;20218;-69
2022/01/08 08:17:16;;;;;;;26.20;11.63;;;-0.20;85.00;;;;;;5032428;28;20211;-75
2022/01/08 08:19:44;;;;;;;20.80;11.10;;;-0.10;84.70;;;;;;5035806;28;20233;-76
2022/01/08 08:22:11;;;;;;;23.73;11.53;;;0.00;84.30;;;;;;5027467;28;20331;-74
2022/01/08 08:24:38;;;;;;;19.13;10.70;;;0.30;84.60;;;;;;5032140;28;20203;-73
2022/01/08 08:27:11;;;;;;;23.97;11.30;;;0.40;84.70;;;;;;5047700;28;20206;-76
2022/01/08 08:29:42;;;;;;;21.70;10.63;;;0.50;82.40;;;;;;5034551;28;20222;-75
2022/01/08 08:32:09;;;;;;;21.10;10.73;;;0.70;82.90;;;;;;5036096;28;20207;-72
2022/01/08 08:34:36;;;;;;;20.67;10.83;;;0.80;81.00;;;;;;5038069;28;20286;-75
2022/01/08 08:37:04;;;;;;;23.13;10.77;;;0.80;80.20;;;;;;5044870;28;20616;-76
2022/01/08 08:39:32;;;;;;;18.77;10.90;;;0.70;79.90;;;;;;5037987;28;20655;-76
2022/01/08 08:41:59;;;;;;;21.40;9.57;;;0.70;80.00;;;;;;5040036;28;20481;-75
2022/01/08 08:44:26;;;;;;;23.07;10.77;;;0.70;80.00;;;;;;5040070;28;20305;-75
2022/01/08 08:46:52;;;;;;;19.67;10.03;;;0.70;79.50;;;;;;5045861;28;20217;-77
2022/01/08 08:49:19;;;;;;;19.07;10.60;;;0.60;79.10;;;;;;5056935;28;20213;-76
2022/01/08 08:51:46;;;;;;;21.20;9.67;;;0.50;79.50;;;;;;5038877;28;20598;-76
2022/01/08 08:54:15;;;;;;;20.27;10.17;;;0.50;80.60;;;;;;5033534;28;20207;-75
2022/01/08 08:56:43;;;;;;;22.77;10.57;;;0.80;81.80;;;;;;5037235;28;20230;-75
2022/01/08 08:59:10;;;;;;;20.57;10.87;;;1.20;83.80;;;;;;5043372;28;20202;-75
2022/01/08 09:01:37;;;;;;;19.30;10.30;;;2.80;95.40;;;;;;5045936;28;20209;-74
2022/01/08 09:04:05;;;;;;;19.17;10.40;;;4.70;86.00;;;;;;5051376;28;20198;-75
2022/01/08 09:06:32;;;;;;;21.47;10.77;;;6.30;75.00;;;;;;5057837;28;20260;-76
2022/01/08 09:08:59;;;;;;;21.30;10.97;;;7.10;66.50;;;;;;5058710;28;20210;-76
2022/01/08 09:11:28;;;;;;;21.90;10.87;;;7.10;60.90;;;;;;5053322;28;20202;-72
2022/01/08 09:13:55;;;;;;;17.23;9.97;;;6.70;59.40;;;;;;5039345;28;20221;-74
2022/01/08 09:16:22;;;;;;;20.67;10.33;;;6.50;59.20;;;;;;5034831;28;20589;-76
2022/01/08 09:18:49;;;;;;;20.50;11.50;;;6.30;59.70;;;;;;5046756;28;20815;-71
2022/01/08 09:21:16;;;;;;;20.33;10.97;;;6.20;59.30;;;;;;5047382;28;20198;-76
2022/01/08 09:23:44;;;;;;;20.37;11.20;;;6.20;59.20;;;;;;5056048;28;20560;-76
2022/01/08 09:26:11;;;;;;;23.33;12.17;;;5.90;57.70;;;;;;5048788;28;20292;-75
2022/01/08 09:28:39;;;;;;;20.37;9.90;;;5.50;57.80;;;;;;5050857;28;20213;-76
2022/01/08 09:31:07;;;;;;;20.50;11.53;;;5.10;58.30;;;;;;5057817;28;20214;-75
2022/01/08 09:33:35;;;;;;;22.63;11.77;;;4.90;59.30;;;;;;5055995;28;20194;-76
2022/01/08 09:36:03;;;;;;;25.23;11.13;;;4.70;60.20;;;;;;5043483;28;20202;-76
2022/01/08 09:38:30;;;;;;;23.57;11.60;;;4.80;60.70;;;;;;5058179;28;20233;-76
2022/01/08 09:40:57;;;;;;;18.10;10.10;;;5.20;61.70;;;;;;5057834;28;20241;-75
2022/01/08 09:43:24;;;;;;;20.43;11.37;;;5.40;60.40;;;;;;5051393;28;20222;-76
2022/01/08 09:45:52;;;;;;;21.80;11.67;;;5.40;59.10;;;;;;5042690;28;20207;-75
2022/01/08 09:48:19;;;;;;;19.67;11.60;;;5.30;58.60;;;;;;5056178;28;20202;-74
2022/01/08 09:50:46;;;;;;;19.60;10.77;;;5.00;58.20;;;;;;5023787;28;20227;-76
2022/01/08 09:53:13;;;;;;;20.87;10.73;;;4.70;58.90;;;;;;5034375;28;20297;-76
2022/01/08 09:55:40;;;;;;;27.63;12.40;;;4.40;59.90;;;;;;5036388;28;20226;-77
2022/01/08 09:58:11;;;;;;;23.77;11.10;;;4.30;60.60;;;;;;5034082;28;20245;-76
2022/01/08 10:00:38;;;;;;;22.60;11.13;;;4.20;60.80;;;;;;5026450;28;20242;-77
2022/01/08 10:03:18;;;;;;;24.60;11.93;;;4.10;61.10;;;;;;5038580;28;20353;-76
2022/01/08 10:05:46;;;;;;;23.07;11.50;;;4.10;61.90;;;;;;5024750;28;20784;-77
2022/01/08 10:08:15;;;;;;;22.20;10.97;;;4.10;62.20;;;;;;5037583;28;20245;-77
2022/01/08 10:10:53;;;;;;;24.23;11.73;;;4.20;62.40;;;;;;5037712;28;20217;-77
2022/01/08 10:13:24;;;;;;;21.30;10.97;;;4.30;62.80;;;;;;5038202;28;20207;-76
2022/01/08 10:18:40;;;;;;;22.07;11.00;;;4.70;62.40;;;;;;5024609;28;21002;-75
2022/01/08 10:21:22;;;;;;;19.10;10.97;;;4.90;62.60;;;;;;5023259;28;20215;-76
2022/01/08 10:23:53;;;;;;;21.27;11.43;;;5.00;62.20;;;;;;5037573;28;20284;-75
2022/01/08 10:26:22;;;;;;;20.30;10.53;;;5.00;61.10;;;;;;5035535;28;20242;-76
2022/01/08 10:28:51;;;;;;;22.23;11.60;;;4.80;61.70;;;;;;5049002;28;20300;-76
2022/01/08 10:31:22;;;;;;;26.77;12.00;;;4.80;61.10;;;;;;5023398;28;20225;-76
2022/01/08 10:33:52;;;;;;;20.10;11.53;;;4.80;61.30;;;;;;5036848;28;20218;-76
2022/01/08 10:36:27;;;;;;;22.13;11.20;;;4.80;61.50;;;;;;5042229;28;20304;-77
2022/01/08 10:38:56;;;;;;;22.00;10.83;;;4.90;61.40;;;;;;5043786;28;20301;-76
2022/01/08 10:41:25;;;;;;;20.40;11.70;;;4.80;60.40;;;;;;5036008;28;20677;-78
2022/01/08 10:44:10;;;;;;;22.73;11.83;;;4.70;60.70;;;;;;5037192;28;20690;-76
2022/01/08 10:46:39;;;;;;;22.63;11.40;;;4.70;61.70;;;;;;5035743;28;20695;-76
2022/01/08 10:49:08;;;;;;;20.47;11.03;;;4.70;62.20;;;;;;5045807;28;20229;-77
2022/01/08 10:51:37;;;;;;;19.33;10.93;;;5.10;63.20;;;;;;5042223;28;20248;-76
2022/01/08 10:54:06;;;;;;;20.27;10.47;;;5.60;62.20;;;;;;5047223;28;20209;-76
2022/01/08 10:56:35;;;;;;;21.50;11.63;;;5.80;60.20;;;;;;5031576;28;20226;-75
2022/01/08 10:59:07;;;;;;;22.87;11.50;;;5.80;59.10;;;;;;5033814;28;20226;-74
2022/01/08 11:01:52;;;;;;;21.87;12.27;;;6.00;61.00;;;;;;5036737;28;20201;-74
2022/01/08 11:04:33;;;;;;;25.40;12.50;;;6.70;61.40;;;;;;5051619;28;20699;-73
2022/01/08 11:07:01;;;;;;;22.27;11.93;;;7.50;60.30;;;;;;5037685;28;20203;-73
2022/01/08 11:09:30;;;;;;;21.80;11.63;;;8.20;58.30;;;;;;5051997;28;20202;-74
2022/01/08 11:11:58;;;;;;;23.63;12.23;;;8.40;56.00;;;;;;5042303;28;20211;-75
2022/01/08 11:17:19;;;;;;;22.23;11.97;;;7.90;54.00;;;;;;5037530;28;20218;-75
2022/01/08 11:19:49;;;;;;;21.80;11.70;;;7.30;53.90;;;;;;5031769;28;20198;-74
2022/01/08 11:22:18;;;;;;;24.07;11.83;;;6.70;54.90;;;;;;5053020;28;20293;-75
2022/01/08 11:24:54;;;;;;;23.50;11.43;;;6.20;55.90;;;;;;5044990;28;20251;-75
2022/01/08 11:27:25;;;;;;;25.03;12.50;;;5.60;56.90;;;;;;5032851;28;20670;-76
2022/01/08 11:30:08;;;;;;;21.10;11.67;;;4.90;58.00;;;;;;5045455;28;20213;-73
2022/01/08 11:32:36;;;;;;;37.53;18.40;;;4.40;59.20;;;;;;5039943;28;20228;-68
2022/01/08 11:35:05;;;;;;;24.33;13.00;;;3.90;60.60;;;;;;5027357;28;20203;-70
2022/01/08 11:37:33;;;;;;;24.33;11.80;;;3.50;62.10;;;;;;5042173;28;20233;-73
2022/01/08 11:40:05;;;;;;;27.30;13.03;;;3.30;63.30;;;;;;5049746;28;20210;-75
2022/01/08 11:42:35;;;;;;;27.33;13.33;;;3.10;64.80;;;;;;5050065;28;20214;-71
2022/01/08 11:45:04;;;;;;;22.93;12.43;;;2.90;65.80;;;;;;5047092;28;20222;-71
2022/01/08 11:47:31;;;;;;;20.03;11.80;;;2.70;66.50;;;;;;5038919;28;20203;-73
2022/01/08 11:50:00;;;;;;;25.33;12.17;;;2.50;67.20;;;;;;5047356;28;20582;-73
2022/01/08 11:52:28;;;;;;;22.37;11.87;;;2.30;68.10;;;;;;5033169;28;20293;-74
2022/01/08 11:54:55;;;;;;;24.73;12.30;;;2.20;68.40;;;;;;5025388;28;20256;-71
2022/01/08 11:57:24;;;;;;;20.27;11.00;;;2.10;69.70;;;;;;5040238;28;20222;-73
2022/01/08 11:59:56;;;;;;;23.43;11.93;;;2.00;70.60;;;;;;5026956;28;20214;-73
2022/01/08 12:02:34;;;;;;;19.27;11.13;;;1.90;71.30;;;;;;5032787;28;20559;-73
2022/01/08 12:05:01;;;;;;;19.43;11.60;;;1.80;72.20;;;;;;5032698;28;20210;-74
2022/01/08 12:07:36;;;;;;;21.57;12.07;;;1.70;73.20;;;;;;5033549;28;20301;-73
2022/01/08 12:10:15;;;;;;;22.30;12.63;;;1.70;74.00;;;;;;5032861;28;20205;-71
2022/01/08 12:12:54;;;;;;;27.37;12.60;;;1.70;74.40;;;;;;5032681;28;20667;-74
2022/01/08 12:15:47;;;;;;;25.30;12.50;;;1.70;75.20;;;;;;5033871;28;20663;-75
2022/01/08 12:18:16;;;;;;;22.97;11.00;;;1.70;75.80;;;;;;5052636;28;20296;-73
2022/01/08 12:20:46;;;;;;;22.93;12.33;;;1.70;76.10;;;;;;5042670;28;20264;-73
2022/01/08 12:23:44;;;;;;;26.77;12.40;;;1.70;76.10;;;;;;5047283;28;20669;-74
2022/01/08 12:26:38;;;;;;;22.23;11.93;;;1.70;76.50;;;;;;5023071;28;20303;-74
2022/01/08 12:29:05;;;;;;;24.00;11.50;;;1.60;76.90;;;;;;5038060;28;20220;-74
2022/01/08 12:31:38;;;;;;;22.00;11.17;;;1.50;77.00;;;;;;5037717;28;20275;-76
2022/01/08 12:34:32;;;;;;;20.07;10.83;;;1.50;77.40;;;;;;5038135;28;20237;-74
2022/01/08 12:37:02;;;;;;;20.03;10.93;;;1.40;78.00;;;;;;5038428;28;20333;-75
2022/01/08 12:39:52;;;;;;;21.80;11.63;;;1.40;78.90;;;;;;5038011;28;20238;-74
2022/01/08 12:42:37;;;;;;;24.47;12.43;;;1.30;79.00;;;;;;5038066;28;20225;-73
2022/01/08 12:45:08;;;;;;;17.67;11.00;;;1.30;79.70;;;;;;5036700;28;20213;-74
2022/01/08 12:47:52;;;;;;;20.37;12.50;;;1.30;80.00;;;;;;5037704;28;20213;-74
2022/01/08 12:50:31;;;;;;;23.90;12.43;;;1.30;80.60;;;;;;5052923;28;20522;-74
2022/01/08 12:53:30;;;;;;;20.70;12.23;;;1.40;81.00;;;;;;5034674;28;20238;-74
2022/01/08 12:56:12;;;;;;;24.60;12.20;;;1.40;81.50;;;;;;4985293;28;20708;-75
2022/01/08 12:58:53;;;;;;;20.63;11.53;;;1.40;81.50;;;;;;5025627;28;20212;-74
2022/01/08 13:01:25;;;;;;;25.60;12.07;;;1.40;81.70;;;;;;5038326;28;20226;-73
2022/01/08 13:03:54;;;;;;;21.93;12.20;;;1.40;82.10;;;;;;5036825;28;20222;-73
2022/01/08 13:06:25;;;;;;;21.60;12.03;;;1.40;82.40;;;;;;5036832;28;20211;-73